Time;durP1;ratioP1;P1;durP2;ratioP2;P2;SDS_P1;SDS_P2;PMS_P1;PMS_P2;Temp;Humidity;BMP_temperature;BMP_pressure;BME280_temperature;BME280_humidity;BME280_pressure;Samples;Min_cycle;Max_cycle;Signal;HPM_P1;HPM_P2
2022/07/02 00:00:51;;;;;;;;;19.00;19.00;;;;;27.54;53.53;99041.06;6253120;27;99803;-59
2022/07/02 00:04:01;;;;;;;;;19.60;18.60;;;;;27.51;53.46;99039.75;6263609;27;97359;-62
2022/07/02 00:07:05;;;;;;;;;22.67;20.67;;;;;27.42;53.46;99040.88;6263649;27;96833;-64
2022/07/02 00:10:10;;;;;;;;;22.50;20.00;;;;;27.43;53.05;99045.28;6261881;27;97442;-61
2022/07/02 00:13:14;;;;;;;;;22.00;21.00;;;;;27.42;52.84;99043.66;6262008;27;96876;-60
2022/07/02 00:16:17;;;;;;;;;23.50;22.00;;;;;27.36;52.95;99047.75;6263589;27;97576;-59
2022/07/02 00:19:23;;;;;;;;;20.50;19.50;;;;;27.25;53.44;99036.22;6262685;27;97435;-51
2022/07/02 00:22:29;;;;;;;;;26.00;26.00;;;;;27.26;52.84;99029.53;6262531;27;97423;-57
2022/07/02 00:25:40;;;;;;;;;20.20;20.00;;;;;27.35;52.28;99026.75;6247246;27;97019;-55
2022/07/02 00:28:46;;;;;;;;;19.40;19.00;;;;;27.37;51.94;99029.97;6260449;27;98121;-58
2022/07/02 00:31:50;;;;;;;;;20.00;19.25;;;;;27.30;51.96;99046.28;6263596;27;96460;-60
2022/07/02 00:34:57;;;;;;;;;17.00;17.00;;;;;27.36;51.85;99050.53;6262692;27;96906;-62
2022/07/02 00:38:02;;;;;;;;;21.25;20.25;;;;;27.34;51.78;99055.56;6262728;27;97392;-57
2022/07/02 00:41:06;;;;;;;;;20.50;20.00;;;;;27.30;51.80;99049.88;6261873;27;97494;-58
2022/07/02 00:44:12;;;;;;;;;19.50;19.00;;;;;27.31;51.72;99050.69;6262881;27;96521;-57
2022/07/02 00:47:17;;;;;;;;;22.60;21.00;;;;;27.28;51.05;99049.38;6255510;27;97403;-63
2022/07/02 00:50:22;;;;;;;;;20.40;20.00;;;;;27.28;50.89;99046.63;6257315;27;99127;-64
2022/07/02 00:53:26;;;;;;;;;17.00;16.00;;;;;27.26;50.61;99045.31;6261021;27;96645;-57
2022/07/02 00:56:29;;;;;;;;;17.80;17.40;;;;;27.19;50.45;99031.97;6261593;27;97900;-55
2022/07/02 00:59:34;;;;;;;;;15.75;14.75;;;;;27.17;50.30;99004.63;6262843;27;97570;-57
2022/07/02 01:02:39;;;;;;;;;18.50;18.25;;;;;27.21;49.91;99006.75;6261415;27;96781;-61
2022/07/02 01:05:44;;;;;;;;;17.00;16.00;;;;;27.20;49.96;99002.34;6260896;27;97387;-56
2022/07/02 01:12:15;;;;;;;;;15.00;13.50;;;;;27.21;49.83;98999.25;6262070;27;97796;-59
2022/07/02 01:15:18;;;;;;;;;18.33;17.33;;;;;27.18;49.66;98988.81;6260586;27;97534;-58
2022/07/02 01:18:22;;;;;;;;;15.00;14.00;;;;;27.22;49.42;98989.78;6261043;27;98192;-59
2022/07/02 01:21:26;;;;;;;;;16.00;15.00;;;;;27.24;49.41;99006.91;6260234;27;97425;-59
2022/07/02 01:24:31;;;;;;;;;16.40;15.00;;;;;27.29;49.38;99017.78;6260966;27;99127;-59
2022/07/02 01:27:35;;;;;;;;;17.50;16.50;;;;;27.30;49.28;99027.72;6259506;27;98071;-60
2022/07/02 01:30:38;;;;;;;;;18.00;17.00;;;;;27.29;49.07;99022.50;6261579;27;97507;-57
2022/07/02 01:33:42;;;;;;;;;17.00;17.00;;;;;27.30;49.24;99038.81;6250679;27;98681;-60
2022/07/02 01:36:45;;;;;;;;;14.00;13.00;;;;;27.29;48.95;99047.44;6260883;27;97492;-58
2022/07/02 01:39:50;;;;;;;;;17.00;15.80;;;;;27.29;48.84;99051.03;6245501;27;97499;-56
2022/07/02 01:42:53;;;;;;;;;17.00;16.00;;;;;27.31;48.62;99051.53;6262765;27;97568;-58
2022/07/02 01:45:57;;;;;;;;;15.60;14.00;;;;;27.36;48.89;99056.88;6260483;27;97254;-58
2022/07/02 01:49:04;;;;;;;;;15.60;14.20;;;;;27.39;48.57;99064.53;6259232;27;97049;-63
2022/07/02 01:52:08;;;;;;;;;18.40;17.40;;;;;27.41;48.54;99070.56;6260651;27;97074;-59
2022/07/02 01:55:13;;;;;;;;;19.00;18.25;;;;;27.43;48.55;99062.72;6260366;27;97457;-57
2022/07/02 01:58:16;;;;;;;;;15.80;14.80;;;;;27.40;48.51;99060.63;6261942;27;97435;-56
2022/07/02 02:01:19;;;;;;;;;15.80;14.40;;;;;27.40;48.35;99066.16;6260226;27;97298;-56
2022/07/02 02:04:23;;;;;;;;;17.00;15.40;;;;;27.42;48.59;99069.41;6261170;27;98470;-58
2022/07/02 02:07:26;;;;;;;;;19.00;17.60;;;;;27.38;48.83;99076.72;6259429;27;96760;-58
2022/07/02 02:10:31;;;;;;;;;16.60;13.60;;;;;27.40;48.64;99077.22;6259843;27;97065;-57
2022/07/02 02:13:34;;;;;;;;;16.50;15.50;;;;;27.42;48.58;99083.25;6261031;27;98494;-57
2022/07/02 02:16:38;;;;;;;;;16.40;15.00;;;;;27.38;48.71;99084.22;6261779;27;96598;-57
2022/07/02 02:19:42;;;;;;;;;17.00;15.00;;;;;27.37;48.87;99083.41;6258863;27;97515;-57
2022/07/02 02:22:45;;;;;;;;;17.00;15.20;;;;;27.37;48.45;99101.97;6260465;27;97897;-58
2022/07/02 02:25:50;;;;;;;;;23.00;18.00;;;;;27.35;48.54;99099.56;6258734;27;97413;-58
2022/07/02 02:28:54;;;;;;;;;26.00;23.20;;;;;27.08;48.83;99061.13;6260334;27;96862;-61
2022/07/02 02:31:58;;;;;;;;;20.40;17.40;;;;;27.29;49.08;99106.38;6260955;27;97465;-57
2022/07/02 02:35:01;;;;;;;;;24.75;22.00;;;;;27.28;48.87;99107.53;6261513;27;96753;-59
2022/07/02 02:38:05;;;;;;;;;22.00;19.40;;;;;27.23;49.10;99117.94;6260390;27;97478;-57
2022/07/02 02:41:10;;;;;;;;;21.80;20.80;;;;;26.99;48.77;99082.44;6260515;27;97477;-59
2022/07/02 02:44:13;;;;;;;;;25.00;21.00;;;;;27.18;49.00;99118.91;6260477;27;96995;-57
2022/07/02 02:47:16;;;;;;;;;20.00;18.40;;;;;27.13;49.01;99124.59;6260458;27;97279;-54
2022/07/02 02:50:20;;;;;;;;;19.80;17.80;;;;;27.13;48.95;99119.06;6261280;27;97374;-61
2022/07/02 02:53:23;;;;;;;;;23.00;21.20;;;;;27.10;48.96;99125.28;6259924;27;97453;-57
2022/07/02 02:56:28;;;;;;;;;21.20;19.60;;;;;26.93;49.26;99119.69;6257531;27;97517;-60
2022/07/02 02:59:32;;;;;;;;;21.20;19.80;;;;;27.06;49.09;99138.94;6255390;27;97580;-55
2022/07/02 03:02:35;;;;;;;;;20.00;18.60;;;;;27.07;49.20;99140.56;6259293;27;97372;-59
2022/07/02 03:05:39;;;;;;;;;22.40;20.40;;;;;27.07;49.11;99142.53;6259742;27;97404;-56
2022/07/02 03:08:42;;;;;;;;;22.50;21.50;;;;;27.08;49.09;99153.25;6258905;27;97156;-61
2022/07/02 03:11:47;;;;;;;;;23.00;20.75;;;;;27.08;49.08;99147.72;6260889;27;96259;-57
2022/07/02 03:14:50;;;;;;;;;21.00;19.00;;;;;27.11;48.87;99144.34;6259606;27;96898;-61
2022/07/02 03:17:53;;;;;;;;;23.00;21.00;;;;;26.95;49.04;99114.66;6260434;27;96988;-58
2022/07/02 03:20:57;;;;;;;;;23.60;23.00;;;;;27.07;49.27;99148.06;6258890;27;96896;-61
2022/07/02 03:24:01;;;;;;;;;21.00;19.00;;;;;27.07;49.21;99145.31;6258999;27;97420;-59
2022/07/02 03:27:06;;;;;;;;;23.00;22.00;;;;;27.00;49.38;99134.69;6259835;27;96972;-57
2022/07/02 03:30:11;;;;;;;;;22.00;20.50;;;;;27.00;49.55;99137.47;6259871;27;97796;-57
2022/07/02 03:33:14;;;;;;;;;22.60;20.60;;;;;26.98;49.82;99142.50;6262033;27;97396;-57
2022/07/02 03:36:18;;;;;;;;;22.20;19.80;;;;;26.96;49.90;99163.34;6264720;27;97894;-59
2022/07/02 03:39:21;;;;;;;;;25.00;23.75;;;;;26.93;49.90;99163.97;6264642;27;96849;-56
2022/07/02 03:42:26;;;;;;;;;25.40;23.40;;;;;26.91;49.48;99182.88;6263806;27;96565;-59
2022/07/02 03:45:29;;;;;;;;;20.80;19.00;;;;;26.90;49.26;99187.59;6262315;27;97436;-57
2022/07/02 03:48:33;;;;;;;;;22.60;19.60;;;;;26.81;49.36;99183.13;6262996;27;96710;-59
2022/07/02 03:51:36;;;;;;;;;21.25;19.00;;;;;26.79;49.30;99207.53;6250498;27;98380;-55
2022/07/02 03:54:40;;;;;;;;;22.00;19.50;;;;;26.75;49.45;99215.66;6263939;27;97484;-59
2022/07/02 03:57:45;;;;;;;;;21.00;18.00;;;;;26.68;49.73;99207.03;6264593;27;97494;-58
2022/07/02 04:00:49;;;;;;;;;21.00;17.00;;;;;26.67;49.95;99217.25;6260338;27;97734;-58
2022/07/02 04:03:52;;;;;;;;;19.00;18.00;;;;;26.66;49.80;99226.69;6263820;27;96743;-59
2022/07/02 04:06:56;;;;;;;;;21.00;20.00;;;;;26.67;50.17;99231.09;6263951;27;97471;-60
2022/07/02 04:10:00;;;;;;;;;21.40;20.40;;;;;26.69;50.04;99230.75;6261829;27;97221;-56
2022/07/02 04:13:05;;;;;;;;;17.50;17.00;;;;;26.73;49.75;99234.53;6261984;27;97487;-57
2022/07/02 04:16:08;;;;;;;;;17.60;16.60;;;;;26.76;49.60;99242.19;6262934;27;96842;-59
2022/07/02 04:19:17;;;;;;;;;16.00;14.00;;;;;26.77;49.88;99243.00;6264310;27;96550;-59
2022/07/02 04:22:20;;;;;;;;;14.60;14.60;;;;;26.75;49.77;99232.25;6261463;27;97986;-58
2022/07/02 04:25:23;;;;;;;;;14.00;14.00;;;;;26.79;49.36;99237.94;6261474;27;98449;-56
2022/07/02 04:28:28;;;;;;;;;13.00;13.00;;;;;26.84;49.06;99229.50;6262540;27;97369;-56
2022/07/02 04:31:31;;;;;;;;;16.00;15.00;;;;;26.87;48.97;99229.75;6254011;27;97814;-57
2022/07/02 04:34:35;;;;;;;;;16.00;16.00;;;;;26.93;48.67;99230.38;6263353;27;96737;-56
2022/07/02 04:37:38;;;;;;;;;15.00;14.80;;;;;26.97;48.69;99232.22;6262501;27;97052;-58
2022/07/02 04:40:43;;;;;;;;;16.00;13.40;;;;;26.99;48.36;99237.41;6262049;27;97433;-57
2022/07/02 04:43:48;;;;;;;;;16.00;14.80;;;;;27.01;48.14;99247.03;6262839;27;97344;-59
2022/07/02 04:46:51;;;;;;;;;13.00;12.00;;;;;26.99;48.05;99241.00;6262965;27;97384;-56
2022/07/02 04:49:55;;;;;;;;;14.00;14.00;;;;;26.99;48.46;99242.94;6263471;27;96864;-56
2022/07/02 04:52:59;;;;;;;;;17.00;16.00;;;;;26.98;49.09;99236.59;6258347;27;97007;-57
2022/07/02 04:56:02;;;;;;;;;18.00;17.40;;;;;26.93;49.05;99236.72;6260828;27;98755;-57
2022/07/02 04:59:07;;;;;;;;;15.40;14.40;;;;;26.95;49.30;99256.59;6258574;27;97547;-57
2022/07/02 05:02:10;;;;;;;;;17.60;16.40;;;;;26.97;49.52;99248.00;6261467;27;97485;-55
2022/07/02 05:05:14;;;;;;;;;16.40;14.40;;;;;26.99;49.43;99249.28;6250456;27;97559;-59
2022/07/02 05:08:20;;;;;;;;;16.00;14.33;;;;;27.00;49.52;99250.94;6262408;27;97391;-57
2022/07/02 05:11:24;;;;;;;;;19.20;18.00;;;;;27.01;49.39;99258.09;6258473;27;97370;-57
2022/07/02 05:14:29;;;;;;;;;16.00;16.00;;;;;27.00;49.21;99272.25;6262021;27;96519;-59
2022/07/02 05:17:32;;;;;;;;;20.00;18.00;;;;;26.95;48.71;99272.38;6261972;27;97022;-57
2022/07/02 05:20:36;;;;;;;;;17.40;17.00;;;;;26.96;49.00;99277.63;6259745;27;96820;-56
2022/07/02 05:23:39;;;;;;;;;19.00;19.00;;;;;26.97;49.30;99284.78;6261963;27;97557;-58
2022/07/02 05:26:42;;;;;;;;;19.00;17.60;;;;;26.97;48.88;99289.50;6260603;27;97333;-59
2022/07/02 05:29:47;;;;;;;;;22.00;19.60;;;;;26.95;48.66;99289.00;6262498;27;98797;-57
2022/07/02 05:32:51;;;;;;;;;21.40;19.00;;;;;26.92;49.04;99289.66;6262046;27;96948;-64
2022/07/02 05:35:54;;;;;;;;;18.75;17.00;;;;;26.89;48.94;99291.09;6261475;27;97052;-54
2022/07/02 05:38:58;;;;;;;;;17.80;16.00;;;;;26.86;48.85;99293.66;6262537;27;97583;-55
2022/07/02 05:42:01;;;;;;;;;20.00;17.00;;;;;26.86;48.96;99291.72;6258802;27;98013;-62
2022/07/02 05:45:07;;;;;;;;;17.00;16.60;;;;;26.89;48.99;99306.88;6242832;27;99184;-58
2022/07/02 05:48:11;;;;;;;;;18.60;16.00;;;;;26.90;48.83;99309.31;6261965;27;96772;-58
2022/07/02 05:51:16;;;;;;;;;17.40;16.40;;;;;26.91;48.77;99313.72;6262059;27;97446;-59
2022/07/02 05:54:19;;;;;;;;;16.40;14.00;;;;;26.92;48.63;99320.06;6261669;27;97690;-57
2022/07/02 05:57:23;;;;;;;;;18.00;17.00;;;;;26.93;48.80;99321.69;6240540;27;97508;-55
2022/07/02 06:00:27;;;;;;;;;19.75;16.75;;;;;27.00;48.69;99322.06;6260557;27;96902;-56
2022/07/02 06:03:31;;;;;;;;;16.00;14.40;;;;;27.00;48.34;99333.94;6261963;27;97441;-60
2022/07/02 06:09:56;;;;;;;;;19.00;17.60;;;;;27.00;48.94;99338.66;6260452;27;97324;-59
2022/07/02 06:12:59;;;;;;;;;18.60;17.60;;;;;27.03;49.00;99335.25;6260347;27;97599;-60
2022/07/02 06:16:04;;;;;;;;;19.00;18.00;;;;;27.06;48.91;99342.94;6257631;27;97444;-55
2022/07/02 06:19:08;;;;;;;;;19.60;16.60;;;;;27.07;48.39;99348.13;6259137;27;97544;-58
2022/07/02 06:22:11;;;;;;;;;21.50;20.50;;;;;27.07;48.23;99347.34;6260312;27;97406;-60
2022/07/02 06:25:14;;;;;;;;;19.00;19.00;;;;;27.08;48.66;99357.25;6259115;27;96875;-58
2022/07/02 06:28:18;;;;;;;;;21.00;19.20;;;;;27.07;48.11;99363.94;6260176;27;97418;-56
2022/07/02 06:31:23;;;;;;;;;21.00;21.00;;;;;27.07;48.30;99363.94;6261262;27;96799;-59
2022/07/02 06:34:26;;;;;;;;;17.25;16.25;;;;;27.04;48.55;99370.09;6241964;27;98614;-58
2022/07/02 06:37:32;;;;;;;;;21.00;21.00;;;;;27.01;48.58;99376.28;6260613;27;96622;-60
2022/07/02 06:40:35;;;;;;;;;20.20;18.00;;;;;26.99;48.83;99381.31;6258185;27;97911;-58
2022/07/02 06:43:39;;;;;;;;;21.00;20.00;;;;;26.95;48.61;99380.31;6260041;27;96471;-58
2022/07/02 06:46:44;;;;;;;;;21.00;20.50;;;;;26.93;49.01;99391.69;6255990;27;97588;-61
2022/07/02 06:49:49;;;;;;;;;19.60;18.60;;;;;26.77;48.51;99376.59;6260602;27;97471;-58
2022/07/02 06:52:52;;;;;;;;;20.00;17.00;;;;;26.86;48.79;99404.31;6258423;27;97654;-57
2022/07/02 06:55:56;;;;;;;;;19.00;18.00;;;;;26.79;48.48;99403.94;6261366;27;97589;-58
2022/07/02 06:58:59;;;;;;;;;18.00;16.00;;;;;26.78;49.02;99407.84;6260839;27;97464;-57
2022/07/02 07:02:05;;;;;;;;;16.00;16.00;;;;;26.79;48.94;99406.69;6260915;27;96815;-57
2022/07/02 07:05:14;;;;;;;;;16.00;16.00;;;;;26.76;48.71;99407.34;6264057;27;98092;-56
2022/07/02 07:08:18;;;;;;;;;17.20;17.00;;;;;26.79;49.51;99407.53;6264974;27;97397;-57
2022/07/02 07:11:22;;;;;;;;;19.00;16.00;;;;;26.78;49.28;99397.59;6263848;27;97381;-61
2022/07/02 07:14:26;;;;;;;;;20.00;19.00;;;;;26.77;48.97;99409.81;6229888;27;97774;-57
2022/07/02 07:17:30;;;;;;;;;21.60;19.60;;;;;26.74;49.48;99410.41;6262269;27;97706;-61
2022/07/02 07:20:36;;;;;;;;;18.60;17.00;;;;;26.72;49.49;99418.22;6262880;27;96612;-58
2022/07/02 07:23:39;;;;;;;;;20.00;19.00;;;;;26.53;49.52;99390.78;6259734;27;96597;-59
2022/07/02 07:26:42;;;;;;;;;18.00;18.00;;;;;26.68;50.09;99426.31;6259631;27;96792;-60
2022/07/02 07:29:46;;;;;;;;;19.60;17.60;;;;;26.68;49.60;99426.31;6262380;27;97425;-59
2022/07/02 07:32:50;;;;;;;;;19.60;18.00;;;;;26.68;49.32;99433.81;6261164;27;96838;-57
2022/07/02 07:35:54;;;;;;;;;20.60;20.60;;;;;26.68;49.51;99436.59;6259559;27;97120;-58
2022/07/02 07:38:57;;;;;;;;;19.60;18.00;;;;;26.69;49.78;99441.78;6257974;27;98037;-59
2022/07/02 07:42:01;;;;;;;;;16.60;14.00;;;;;26.72;49.58;99449.47;6262343;27;97930;-58
2022/07/02 07:45:05;;;;;;;;;22.00;21.00;;;;;26.73;49.99;99451.09;6264164;27;97057;-57
2022/07/02 07:48:10;;;;;;;;;20.80;19.00;;;;;26.77;50.07;99450.47;6263116;27;97024;-57
2022/07/02 07:51:13;;;;;;;;;22.40;19.40;;;;;26.82;50.20;99458.66;6262778;27;97021;-58
2022/07/02 07:54:17;;;;;;;;;20.80;19.20;;;;;26.77;49.62;99443.00;6258842;27;98642;-57
2022/07/02 07:57:20;;;;;;;;;19.75;17.00;;;;;26.97;49.83;99459.13;6259814;27;96775;-59
2022/07/02 08:00:24;;;;;;;;;22.40;21.00;;;;;27.04;49.38;99465.00;6260010;27;97517;-58
2022/07/02 08:03:28;;;;;;;;;20.40;18.40;;;;;27.09;49.20;99469.59;6259179;27;98453;-60
2022/07/02 08:06:32;;;;;;;;;21.00;19.40;;;;;27.10;48.51;99466.53;6260091;27;96917;-57
2022/07/02 08:09:35;;;;;;;;;21.00;19.00;;;;;27.13;48.06;99476.94;6260450;27;97083;-55
2022/07/02 08:12:39;;;;;;;;;19.60;18.00;;;;;27.16;48.26;99475.50;6260748;27;97421;-55
2022/07/02 08:15:43;;;;;;;;;21.00;19.00;;;;;27.18;47.79;99476.00;6259707;27;97147;-52
2022/07/02 08:18:47;;;;;;;;;21.00;19.20;;;;;27.20;47.76;99481.22;6260821;27;97653;-55
2022/07/02 08:21:51;;;;;;;;;21.00;17.60;;;;;27.25;47.63;99484.69;6261086;27;97445;-59
2022/07/02 08:24:54;;;;;;;;;21.80;21.00;;;;;27.26;47.52;99478.00;6260920;27;96625;-56
2022/07/02 08:27:58;;;;;;;;;23.40;22.00;;;;;27.27;47.46;99489.91;6260042;27;97121;-52
2022/07/02 08:31:01;;;;;;;;;23.00;22.00;;;;;27.33;47.57;99481.13;6260210;27;97598;-57
2022/07/02 08:34:06;;;;;;;;;21.00;20.00;;;;;27.39;47.76;99482.63;6259024;27;98049;-53
2022/07/02 08:37:09;;;;;;;;;19.80;19.00;;;;;27.44;47.28;99484.44;6257858;27;97713;-56
2022/07/02 08:40:13;;;;;;;;;19.40;17.40;;;;;27.38;46.90;99464.38;6258747;27;96827;-54
2022/07/02 08:43:18;;;;;;;;;19.00;18.00;;;;;27.50;46.58;99475.72;6259928;27;97119;-55
2022/07/02 08:46:25;;;;;;;;;18.60;17.60;;;;;27.70;46.54;99493.75;6260484;27;97883;-53
2022/07/02 08:49:33;;;;;;;;;19.40;19.00;;;;;27.80;46.24;99484.31;6260691;27;97582;-54
2022/07/02 08:52:39;;;;;;;;;18.50;17.50;;;;;27.90;45.49;99484.84;6259011;27;97192;-56
2022/07/02 08:55:50;;;;;;;;;23.40;20.60;;;;;27.98;45.69;99486.00;6257213;27;96780;-55
2022/07/02 08:58:55;;;;;;;;;20.00;19.00;;;;;28.00;45.56;99486.50;6261281;27;96690;-56
2022/07/02 09:01:59;;;;;;;;;21.20;20.40;;;;;28.04;45.24;99497.75;6261558;27;97509;-57
2022/07/02 09:05:06;;;;;;;;;20.00;19.40;;;;;28.05;45.04;99496.63;6261807;27;97564;-58
2022/07/02 09:08:10;;;;;;;;;19.40;19.00;;;;;28.02;44.35;99501.66;6262432;27;97506;-57
2022/07/02 09:11:15;;;;;;;;;20.80;19.40;;;;;28.00;44.57;99509.47;6261003;27;97508;-58
2022/07/02 09:14:19;;;;;;;;;19.00;18.00;;;;;27.99;44.17;99507.84;6262293;27;97498;-61
2022/07/02 09:17:25;;;;;;;;;18.40;18.00;;;;;28.00;44.22;99508.69;6262549;27;97067;-56
2022/07/02 09:20:30;;;;;;;;;20.40;18.00;;;;;27.92;44.09;99496.41;6261211;27;97458;-57
2022/07/02 09:23:34;;;;;;;;;20.00;19.00;;;;;28.04;44.21;99512.44;6262622;27;97116;-56
2022/07/02 09:26:37;;;;;;;;;21.60;20.00;;;;;28.04;43.87;99509.66;6259837;27;97360;-58
2022/07/02 09:29:42;;;;;;;;;19.00;18.00;;;;;28.04;44.21;99512.44;6262212;27;96589;-55
2022/07/02 09:32:47;;;;;;;;;20.50;19.50;;;;;28.05;44.25;99507.72;6261884;27;97463;-57
2022/07/02 09:35:52;;;;;;;;;19.00;18.00;;;;;28.08;43.82;99498.75;6260394;27;97041;-56
2022/07/02 09:38:56;;;;;;;;;16.20;15.80;;;;;28.10;43.89;99497.25;6261471;27;97653;-56
2022/07/02 09:41:59;;;;;;;;;20.00;18.00;;;;;27.97;43.57;99471.31;6260955;27;97328;-57
2022/07/02 09:45:05;;;;;;;;;20.00;18.60;;;;;28.13;43.29;99512.47;6261619;27;98133;-59
2022/07/02 09:48:09;;;;;;;;;22.20;18.20;;;;;28.14;43.59;99503.84;6261687;27;97396;-58
2022/07/02 09:51:15;;;;;;;;;23.40;21.40;;;;;28.18;43.17;99510.38;6261255;27;97108;-55
2022/07/02 09:54:19;;;;;;;;;20.50;19.00;;;;;28.20;43.02;99510.06;6261151;27;96696;-55
2022/07/02 09:57:23;;;;;;;;;20.67;19.00;;;;;28.21;43.05;99520.81;6261788;27;97397;-61
2022/07/02 10:00:28;;;;;;;;;21.25;19.25;;;;;28.18;43.07;99515.09;6243230;27;98835;-61
2022/07/02 10:03:32;;;;;;;;;21.25;19.75;;;;;28.17;42.91;99514.28;6261596;27;97451;-58
2022/07/02 10:06:38;;;;;;;;;22.00;21.00;;;;;28.18;43.05;99513.16;6259552;27;97610;-58
2022/07/02 10:09:42;;;;;;;;;23.00;21.25;;;;;28.16;43.18;99507.09;6260639;27;97317;-57
2022/07/02 10:12:46;;;;;;;;;21.40;20.40;;;;;28.16;43.00;99515.41;6261037;27;98086;-58
2022/07/02 10:15:53;;;;;;;;;20.80;19.20;;;;;28.17;43.17;99519.84;6261321;27;97262;-58
2022/07/02 10:18:59;;;;;;;;;20.00;18.00;;;;;28.21;42.84;99523.59;6261145;27;97361;-57
2022/07/02 10:22:06;;;;;;;;;20.80;19.00;;;;;28.26;43.09;99523.44;6261321;27;98068;-56
2022/07/02 10:25:10;;;;;;;;;20.00;18.00;;;;;28.29;42.80;99522.81;6260765;27;97106;-58
2022/07/02 10:28:14;;;;;;;;;21.60;19.00;;;;;28.26;42.50;99528.97;6259125;27;97129;-58
2022/07/02 10:31:19;;;;;;;;;20.00;19.40;;;;;28.26;42.89;99526.22;6259567;27;97237;-58
2022/07/02 10:34:32;;;;;;;;;18.20;18.00;;;;;28.29;42.85;99527.53;6260124;27;97569;-55
2022/07/02 10:37:40;;;;;;;;;21.20;20.20;;;;;28.28;42.86;99535.03;6260143;27;98130;-57
2022/07/02 10:40:48;;;;;;;;;21.60;19.60;;;;;28.31;42.49;99534.38;6263158;27;98216;-55
2022/07/02 10:43:55;;;;;;;;;22.00;20.00;;;;;28.31;42.58;99539.09;6263721;27;96774;-54
2022/07/02 10:47:00;;;;;;;;;21.75;19.75;;;;;28.28;42.82;99561.94;6264271;27;97543;-54
2022/07/02 10:50:04;;;;;;;;;23.60;21.40;;;;;28.09;42.76;99533.66;6264179;27;97413;-54
2022/07/02 10:53:11;;;;;;;;;23.80;22.00;;;;;28.22;42.32;99561.28;6265000;27;96898;-55
2022/07/02 10:56:14;;;;;;;;;23.00;23.00;;;;;28.14;42.27;99562.06;6262596;27;97255;-54
2022/07/02 10:59:22;;;;;;;;;24.00;22.40;;;;;28.15;42.30;99563.69;6264244;27;98180;-55
2022/07/02 11:02:35;;;;;;;;;24.00;21.60;;;;;28.17;42.50;99558.66;6260887;27;97154;-55
2022/07/02 11:05:55;;;;;;;;;22.00;20.00;;;;;28.19;42.32;99550.84;6263340;27;97569;-57
2022/07/02 11:09:00;;;;;;;;;23.80;21.40;;;;;28.25;42.42;99554.25;6261843;27;97321;-51
2022/07/02 11:12:07;;;;;;;;;25.80;22.00;;;;;28.29;42.67;99545.00;6263698;27;96706;-52
2022/07/02 11:15:17;;;;;;;;;18.00;18.00;;;;;28.30;42.36;99556.88;6262328;27;97117;-60
2022/07/02 11:18:23;;;;;;;;;18.75;18.00;;;;;28.28;42.36;99557.22;6262969;27;97294;-56
2022/07/02 11:21:28;;;;;;;;;21.40;19.00;;;;;28.29;42.59;99560.81;6261998;27;96853;-55
2022/07/02 11:24:33;;;;;;;;;19.50;18.50;;;;;28.22;42.73;99561.28;6261785;27;97510;-58
2022/07/02 11:27:37;;;;;;;;;20.40;19.00;;;;;28.21;42.47;99558.81;6259803;27;98074;-55
2022/07/02 11:30:40;;;;;;;;;20.00;19.00;;;;;28.16;43.07;99559.78;6261309;27;96704;-55
2022/07/02 11:33:49;;;;;;;;;21.80;18.80;;;;;28.15;42.85;99566.47;6260385;27;98494;-57
2022/07/02 11:36:59;;;;;;;;;20.40;18.00;;;;;28.14;42.95;99564.84;6259705;27;97416;-54
2022/07/02 11:40:04;;;;;;;;;19.00;18.00;;;;;28.09;42.60;99569.69;6259071;27;97492;-55
2022/07/02 11:43:14;;;;;;;;;20.50;19.00;;;;;28.02;42.55;99559.03;6261724;27;97175;-56
2022/07/02 11:46:23;;;;;;;;;20.60;19.40;;;;;28.07;42.94;99560.84;6261246;27;97131;-53
2022/07/02 11:49:30;;;;;;;;;19.40;19.00;;;;;28.19;42.93;99563.88;6260879;27;96865;-56
2022/07/02 11:52:33;;;;;;;;;20.25;18.25;;;;;28.27;42.40;99566.66;6261100;27;97534;-53
2022/07/02 11:55:38;;;;;;;;;19.80;19.00;;;;;28.24;42.49;99550.69;6261332;27;97386;-55
2022/07/02 11:58:46;;;;;;;;;19.25;17.25;;;;;28.42;41.90;99563.44;6261453;27;96647;-53
2022/07/02 12:01:51;;;;;;;;;22.00;21.00;;;;;28.39;41.68;99549.41;6261320;27;97460;-53
2022/07/02 12:04:55;;;;;;;;;21.25;20.00;;;;;28.61;41.41;99567.88;6261642;27;97553;-55
2022/07/02 12:07:58;;;;;;;;;22.00;21.20;;;;;28.69;41.54;99567.88;6262382;27;97235;-54
2022/07/02 12:11:11;;;;;;;;;24.60;22.20;;;;;28.77;41.14;99563.53;6263091;27;97467;-53
2022/07/02 12:14:15;;;;;;;;;22.80;21.20;;;;;28.76;40.95;99559.13;6261792;27;96458;-56
2022/07/02 12:17:18;;;;;;;;;23.60;22.00;;;;;28.76;40.51;99568.25;6263571;27;97405;-55
2022/07/02 12:20:24;;;;;;;;;18.67;18.67;;;;;28.71;40.52;99564.78;6263786;27;97056;-52
2022/07/02 12:23:28;;;;;;;;;20.40;19.00;;;;;28.62;40.49;99563.97;6264431;27;97442;-56
2022/07/02 12:26:32;;;;;;;;;19.20;18.00;;;;;28.65;40.47;99566.91;6264153;27;96891;-58
2022/07/02 12:29:56;;;;;;;;;17.50;15.50;;;;;28.62;40.85;99561.19;6264097;27;97530;-54
2022/07/02 12:33:00;;;;;;;;;22.25;20.00;;;;;28.64;40.51;99562.50;6262986;27;96536;-54
2022/07/02 12:36:05;;;;;;;;;17.00;17.00;;;;;28.65;40.47;99563.31;6261977;27;97026;-56
2022/07/02 12:39:08;;;;;;;;;17.80;17.00;;;;;28.67;40.69;99556.31;6262884;27;96814;-57
2022/07/02 12:42:15;;;;;;;;;17.75;16.75;;;;;28.75;40.35;99554.69;6262273;27;96983;-53
2022/07/02 12:45:23;;;;;;;;;18.00;16.60;;;;;28.78;40.29;99556.84;6263271;27;96986;-54
2022/07/02 12:48:27;;;;;;;;;17.00;14.40;;;;;28.88;40.14;99561.25;6263157;27;97477;-56
2022/07/02 12:51:30;;;;;;;;;16.80;15.80;;;;;28.91;40.12;99555.03;6263449;27;97014;-55
2022/07/02 12:54:36;;;;;;;;;16.00;16.00;;;;;28.96;39.63;99557.66;6262860;27;96849;-57
2022/07/02 12:57:41;;;;;;;;;15.60;15.00;;;;;29.01;39.73;99540.84;6263214;27;96599;-54
2022/07/02 13:00:45;;;;;;;;;14.40;13.40;;;;;29.13;39.64;99541.78;6263018;27;97133;-59
2022/07/02 13:03:49;;;;;;;;;15.80;14.80;;;;;29.19;39.50;99539.66;6262473;27;97597;-58
2022/07/02 13:06:52;;;;;;;;;13.80;13.20;;;;;29.28;39.60;99543.25;6261745;27;96997;-54
2022/07/02 13:09:56;;;;;;;;;16.00;14.50;;;;;29.35;39.75;99537.22;6261016;27;96891;-54
2022/07/02 13:13:03;;;;;;;;;16.60;14.60;;;;;29.43;39.49;99544.72;6263159;27;97351;-54
2022/07/02 13:16:06;;;;;;;;;17.80;16.20;;;;;29.42;39.63;99537.53;6262018;27;97045;-53
2022/07/02 13:19:10;;;;;;;;;18.00;16.25;;;;;29.37;39.41;99532.16;6260145;27;97486;-54
2022/07/02 13:22:14;;;;;;;;;16.00;15.40;;;;;29.50;40.00;99533.91;6262379;27;97021;-55
2022/07/02 13:25:18;;;;;;;;;15.80;15.80;;;;;29.62;39.73;99526.50;6255139;27;96945;-55
2022/07/02 13:28:22;;;;;;;;;17.00;16.00;;;;;29.79;38.44;99525.66;6262184;27;97284;-57
2022/07/02 13:31:27;;;;;;;;;16.00;16.00;;;;;30.02;38.61;99524.25;6261286;27;97436;-55
2022/07/02 13:34:36;;;;;;;;;14.00;14.00;;;;;30.25;38.62;99530.34;6260468;27;96542;-56
2022/07/02 13:37:40;;;;;;;;;16.25;16.00;;;;;30.45;37.13;99521.22;6258268;27;96713;-56
2022/07/02 13:40:44;;;;;;;;;15.60;14.00;;;;;30.62;36.92;99516.72;6262211;27;97421;-56
2022/07/02 13:43:48;;;;;;;;;16.00;15.60;;;;;30.79;36.65;99520.16;6262479;27;97463;-59
2022/07/02 13:46:51;;;;;;;;;15.00;14.00;;;;;30.95;36.47;99518.38;6261996;27;97968;-52
2022/07/02 13:49:55;;;;;;;;;15.00;14.00;;;;;30.81;36.07;99476.09;6261090;27;96736;-55
2022/07/02 13:52:59;;;;;;;;;11.00;11.00;;;;;31.13;35.85;99510.69;6259998;27;96891;-57
2022/07/02 13:56:02;;;;;;;;;14.00;14.00;;;;;31.15;35.58;99516.75;6261684;27;96518;-56
2022/07/02 13:59:07;;;;;;;;;14.20;13.80;;;;;31.06;35.65;99509.66;6262601;27;97469;-56
2022/07/02 14:02:10;;;;;;;;;14.00;14.00;;;;;30.98;35.75;99508.56;6262143;27;96989;-55
2022/07/02 14:05:14;;;;;;;;;14.00;14.00;;;;;30.75;35.77;99480.25;6262471;27;97489;-55
2022/07/02 14:08:19;;;;;;;;;14.00;13.00;;;;;30.84;36.25;99508.00;6260068;27;97268;-55
2022/07/02 14:11:23;;;;;;;;;14.00;13.00;;;;;30.82;36.30;99515.91;6260431;27;96412;-55
2022/07/02 14:14:28;;;;;;;;;13.00;12.00;;;;;30.81;36.10;99511.47;6260269;27;96923;-54